Time;durP1;ratioP1;P1;durP2;ratioP2;P2;SDS_P1;SDS_P2;PMS_P1;PMS_P2;Temp;Humidity;BMP_temperature;BMP_pressure;BME280_temperature;BME280_humidity;BME280_pressure;Samples;Min_cycle;Max_cycle;Signal;HPM_P1;HPM_P2
2021/12/09 00:00:44;;;;;;;12.38;6.50;;;3.00;74.50;;;;;;5056523;28;20091;-73
2021/12/09 00:03:13;;;;;;;11.35;6.35;;;3.00;74.50;;;;;;5054873;28;20128;-73
2021/12/09 00:05:42;;;;;;;8.63;5.72;;;3.00;74.60;;;;;;5054701;28;20056;-73
2021/12/09 00:08:08;;;;;;;13.88;6.70;;;3.00;74.60;;;;;;5056139;28;20111;-73
2021/12/09 00:10:35;;;;;;;13.95;7.07;;;3.00;74.70;;;;;;5056222;28;20060;-73
2021/12/09 00:13:02;;;;;;;13.10;6.45;;;3.00;74.80;;;;;;5054309;28;20044;-73
2021/12/09 00:15:28;;;;;;;12.75;6.55;;;3.00;74.80;;;;;;5054496;28;20052;-73
2021/12/09 00:17:54;;;;;;;11.38;6.85;;;3.00;74.70;;;;;;5054406;28;20045;-73
2021/12/09 00:20:19;;;;;;;12.07;6.50;;;3.00;74.70;;;;;;5056111;28;20072;-74
2021/12/09 00:22:46;;;;;;;12.50;7.18;;;3.00;74.60;;;;;;5055707;28;20098;-73
2021/12/09 00:25:14;;;;;;;10.15;6.63;;;3.00;74.60;;;;;;5054203;28;20037;-75
2021/12/09 00:27:40;;;;;;;12.35;7.32;;;3.00;74.70;;;;;;5053755;28;20084;-73
2021/12/09 00:30:07;;;;;;;11.77;7.20;;;3.00;74.70;;;;;;5054832;28;20041;-73
2021/12/09 00:32:32;;;;;;;13.73;6.38;;;3.00;74.70;;;;;;5055018;28;20037;-73
2021/12/09 00:34:58;;;;;;;12.25;7.00;;;3.00;74.70;;;;;;5055475;28;20124;-73
2021/12/09 00:37:34;;;;;;;12.65;7.03;;;2.90;74.60;;;;;;5055361;28;20099;-73
2021/12/09 00:40:00;;;;;;;15.73;8.15;;;3.00;74.80;;;;;;5054797;28;20112;-73
2021/12/09 00:42:26;;;;;;;11.70;6.72;;;2.90;74.70;;;;;;5054836;28;20037;-73
2021/12/09 00:44:53;;;;;;;13.93;7.88;;;2.90;74.80;;;;;;5055249;28;20045;-73
2021/12/09 00:47:19;;;;;;;12.98;7.05;;;2.90;74.80;;;;;;5055082;28;20048;-73
2021/12/09 00:49:46;;;;;;;12.43;7.22;;;2.90;74.70;;;;;;5054887;28;20132;-73
2021/12/09 00:52:12;;;;;;;11.05;6.82;;;2.90;74.80;;;;;;5055615;28;20052;-73
2021/12/09 00:54:41;;;;;;;11.77;7.40;;;2.90;74.90;;;;;;5054816;28;20037;-73
2021/12/09 00:57:07;;;;;;;12.68;7.75;;;2.90;74.90;;;;;;5053445;28;20083;-73
2021/12/09 00:59:32;;;;;;;10.77;6.95;;;2.90;74.90;;;;;;5053149;28;20072;-73
2021/12/09 01:01:58;;;;;;;11.25;7.57;;;2.90;74.90;;;;;;5054942;28;20045;-73
2021/12/09 01:04:24;;;;;;;11.25;8.07;;;3.10;75.40;;;;;;5052938;28;20060;-73
2021/12/09 01:06:50;;;;;;;10.50;6.95;;;2.90;74.90;;;;;;5054940;28;20036;-73
2021/12/09 01:09:16;;;;;;;12.73;7.70;;;2.90;74.90;;;;;;5054614;28;20045;-73
2021/12/09 01:11:42;;;;;;;12.00;7.45;;;2.90;74.90;;;;;;5054674;28;20037;-73
2021/12/09 01:14:08;;;;;;;11.25;7.32;;;2.90;74.90;;;;;;5054289;28;20512;-73
2021/12/09 01:16:33;;;;;;;14.13;7.53;;;2.90;74.80;;;;;;5054792;28;20070;-73
2021/12/09 01:18:59;;;;;;;10.75;7.30;;;2.90;74.90;;;;;;5054439;28;20378;-73
2021/12/09 01:21:25;;;;;;;12.57;7.70;;;2.90;74.90;;;;;;5054316;28;20041;-73
2021/12/09 01:23:50;;;;;;;12.10;8.57;;;2.90;75.00;;;;;;5053684;28;20037;-73
2021/12/09 01:26:16;;;;;;;11.70;7.53;;;2.90;75.00;;;;;;5052995;28;20480;-73
2021/12/09 01:28:50;;;;;;;11.77;7.93;;;2.90;75.00;;;;;;5052877;28;20052;-73
2021/12/09 01:31:27;;;;;;;13.43;8.65;;;2.90;75.00;;;;;;5054544;28;20045;-73
2021/12/09 01:33:54;;;;;;;14.85;7.90;;;2.90;75.10;;;;;;5053069;28;20455;-72
2021/12/09 01:36:20;;;;;;;14.55;8.27;;;2.90;75.10;;;;;;5054371;28;20412;-73
2021/12/09 01:38:46;;;;;;;11.95;8.23;;;2.90;75.10;;;;;;5054534;28;20443;-73
2021/12/09 01:41:12;;;;;;;14.68;7.85;;;2.90;75.00;;;;;;5053707;28;20041;-73
2021/12/09 01:43:38;;;;;;;15.60;8.83;;;2.90;75.10;;;;;;5053525;28;20033;-73
2021/12/09 01:46:10;;;;;;;13.93;8.25;;;2.80;74.90;;;;;;5053674;28;20045;-73
2021/12/09 01:48:37;;;;;;;14.93;8.55;;;2.80;75.00;;;;;;5053458;28;20045;-73
2021/12/09 01:51:04;;;;;;;17.73;9.73;;;2.80;74.90;;;;;;5052774;28;20032;-73
2021/12/09 01:53:30;;;;;;;16.50;8.15;;;2.80;75.00;;;;;;5052754;28;20124;-73
2021/12/09 01:56:02;;;;;;;12.48;8.38;;;2.80;75.00;;;;;;5053771;28;20132;-72
2021/12/09 01:58:27;;;;;;;12.35;8.43;;;2.80;74.90;;;;;;5054346;28;20048;-73
2021/12/09 02:00:53;;;;;;;13.25;7.95;;;2.70;74.90;;;;;;5053614;28;20041;-73
2021/12/09 02:03:19;;;;;;;13.35;8.52;;;2.70;74.90;;;;;;5052713;28;20057;-73
2021/12/09 02:05:45;;;;;;;16.58;9.35;;;2.70;75.00;;;;;;5052338;28;20044;-73
2021/12/09 02:08:13;;;;;;;11.88;7.95;;;2.70;75.10;;;;;;5053199;28;20041;-73
2021/12/09 02:10:41;;;;;;;12.55;8.68;;;2.70;75.20;;;;;;5053209;28;20045;-74
2021/12/09 02:13:07;;;;;;;12.50;8.57;;;2.70;75.30;;;;;;5052269;28;20041;-73
2021/12/09 02:15:34;;;;;;;16.17;9.20;;;2.70;75.60;;;;;;5052785;28;20044;-73
2021/12/09 02:18:03;;;;;;;15.37;9.20;;;2.70;75.20;;;;;;5053400;28;20049;-73
2021/12/09 02:20:32;;;;;;;13.50;8.65;;;2.70;75.20;;;;;;5052620;28;20480;-73
2021/12/09 02:22:58;;;;;;;15.02;8.57;;;2.70;75.20;;;;;;5053260;28;20396;-73
2021/12/09 02:25:23;;;;;;;15.20;8.53;;;2.60;75.10;;;;;;5052793;28;20036;-73
2021/12/09 02:27:49;;;;;;;12.70;9.07;;;2.60;75.10;;;;;;5053760;28;20048;-74
2021/12/09 02:30:15;;;;;;;17.35;9.32;;;2.60;75.30;;;;;;5053847;28;20472;-73
2021/12/09 02:32:44;;;;;;;15.27;8.70;;;2.60;75.40;;;;;;5053306;28;20076;-73
2021/12/09 02:35:10;;;;;;;15.37;9.03;;;2.60;75.40;;;;;;5052781;28;20044;-73
2021/12/09 02:37:36;;;;;;;13.50;9.10;;;2.60;75.40;;;;;;5053122;28;20033;-73
2021/12/09 02:40:06;;;;;;;14.68;9.20;;;2.60;75.40;;;;;;5055522;28;20048;-72
2021/12/09 02:42:34;;;;;;;14.68;9.57;;;2.60;75.50;;;;;;5055700;28;20037;-73
2021/12/09 02:45:00;;;;;;;14.88;9.70;;;2.60;75.40;;;;;;5055350;28;20056;-73
2021/12/09 02:47:26;;;;;;;11.73;8.43;;;2.60;75.40;;;;;;5053643;28;20072;-73
2021/12/09 02:49:52;;;;;;;13.18;8.60;;;2.60;75.30;;;;;;5053369;28;20427;-73
2021/12/09 02:52:19;;;;;;;11.35;8.60;;;2.60;75.30;;;;;;5053087;28;20045;-73
2021/12/09 02:54:45;;;;;;;13.47;9.20;;;2.60;75.30;;;;;;5052224;28;20472;-73
2021/12/09 02:57:11;;;;;;;15.63;9.30;;;2.60;75.30;;;;;;5051948;28;20070;-73
2021/12/09 02:59:37;;;;;;;12.82;8.95;;;2.60;75.20;;;;;;5053072;28;20037;-72
2021/12/09 03:02:05;;;;;;;15.47;9.03;;;2.60;75.20;;;;;;5052352;28;20052;-73
2021/12/09 03:04:47;;;;;;;14.23;9.37;;;2.60;75.30;;;;;;5051524;28;20053;-73
2021/12/09 03:07:18;;;;;;;13.87;9.67;;;2.60;75.30;;;;;;5052304;28;20033;-73
2021/12/09 03:09:53;;;;;;;14.87;8.57;;;2.60;75.30;;;;;;5033830;28;20510;-72
2021/12/09 03:12:25;;;;;;;17.77;9.23;;;2.70;75.40;;;;;;5051702;28;20094;-73
2021/12/09 03:14:51;;;;;;;12.87;8.20;;;2.60;75.40;;;;;;5053196;28;20048;-73
2021/12/09 03:17:18;;;;;;;15.80;9.63;;;2.60;75.40;;;;;;5052757;28;20419;-72
2021/12/09 03:19:45;;;;;;;16.10;9.00;;;2.70;75.50;;;;;;5052909;28;20053;-73
2021/12/09 03:22:12;;;;;;;18.63;9.50;;;2.70;75.50;;;;;;5052278;28;20357;-73
2021/12/09 03:24:38;;;;;;;14.97;9.63;;;2.60;75.50;;;;;;5033349;28;20046;-73
2021/12/09 03:27:05;;;;;;;14.23;9.37;;;2.70;76.00;;;;;;5045524;28;20460;-72
2021/12/09 03:29:31;;;;;;;15.13;9.33;;;2.70;75.50;;;;;;5052610;28;20041;-73
2021/12/09 03:32:00;;;;;;;14.53;8.67;;;2.60;75.50;;;;;;5053006;28;20049;-72
2021/12/09 03:34:28;;;;;;;17.50;9.93;;;2.70;75.60;;;;;;5052495;28;20036;-73
2021/12/09 03:36:57;;;;;;;16.10;8.73;;;2.70;75.60;;;;;;5051519;28;20128;-73
2021/12/09 03:39:25;;;;;;;12.98;8.55;;;2.70;75.60;;;;;;5052180;28;20044;-72
2021/12/09 03:41:54;;;;;;;16.17;9.17;;;2.70;75.60;;;;;;5052507;28;20080;-73
2021/12/09 03:44:21;;;;;;;15.07;8.80;;;2.70;75.50;;;;;;5052496;28;20045;-72
2021/12/09 03:46:48;;;;;;;16.42;9.27;;;2.70;75.50;;;;;;5051789;28;20041;-73
2021/12/09 03:49:15;;;;;;;18.45;9.02;;;2.70;75.50;;;;;;5052661;28;20496;-72
2021/12/09 03:51:40;;;;;;;17.35;9.35;;;2.70;75.50;;;;;;5052254;28;20056;-72
2021/12/09 03:54:08;;;;;;;13.80;8.55;;;2.70;75.50;;;;;;5052193;28;20037;-73
2021/12/09 03:56:35;;;;;;;14.32;9.07;;;2.60;75.50;;;;;;5054799;28;20127;-73
2021/12/09 03:59:03;;;;;;;14.18;8.43;;;2.70;75.50;;;;;;5055437;28;20041;-73
2021/12/09 04:01:29;;;;;;;15.95;9.18;;;2.70;75.50;;;;;;5054797;28;20122;-73
2021/12/09 04:03:55;;;;;;;11.60;8.05;;;2.70;75.50;;;;;;5055723;28;20480;-73
2021/12/09 04:06:21;;;;;;;15.13;8.33;;;2.60;75.50;;;;;;5056687;28;20041;-73
2021/12/09 04:08:48;;;;;;;13.50;8.82;;;2.70;75.50;;;;;;5055730;28;20503;-74
2021/12/09 04:11:16;;;;;;;13.25;8.45;;;2.70;75.50;;;;;;5056606;28;20054;-73
2021/12/09 04:13:41;;;;;;;15.40;9.35;;;2.60;75.40;;;;;;5054961;28;20056;-73
2021/12/09 04:16:07;;;;;;;11.95;8.23;;;2.60;75.30;;;;;;5054486;28;20052;-73
2021/12/09 04:18:35;;;;;;;19.85;9.93;;;2.60;75.40;;;;;;5055562;28;20045;-73
2021/12/09 04:21:01;;;;;;;14.77;9.10;;;2.60;75.50;;;;;;5056211;28;20041;-74
2021/12/09 04:23:27;;;;;;;12.40;8.82;;;2.60;75.40;;;;;;5054156;28;20489;-73
2021/12/09 04:25:53;;;;;;;11.43;8.55;;;2.60;75.30;;;;;;5056094;28;20068;-74
2021/12/09 04:28:20;;;;;;;16.52;8.63;;;2.50;75.30;;;;;;5055232;28;20068;-72
2021/12/09 04:30:45;;;;;;;14.13;8.43;;;2.50;75.30;;;;;;5056051;28;20053;-73
2021/12/09 04:33:11;;;;;;;12.48;8.38;;;2.60;75.40;;;;;;5055871;28;20401;-74
2021/12/09 04:35:37;;;;;;;15.07;8.73;;;2.50;75.30;;;;;;5055152;28;20033;-73
2021/12/09 04:38:03;;;;;;;12.63;7.83;;;2.50;75.40;;;;;;5055512;28;20041;-73
2021/12/09 04:40:29;;;;;;;14.67;8.27;;;2.50;75.40;;;;;;5055654;28;20092;-73
2021/12/09 04:42:55;;;;;;;16.88;8.65;;;2.50;75.40;;;;;;5055464;28;20454;-73
2021/12/09 04:45:20;;;;;;;15.50;7.87;;;2.50;75.40;;;;;;5055463;28;20136;-73
2021/12/09 04:47:46;;;;;;;13.40;8.40;;;2.50;75.40;;;;;;5055326;28;20459;-73
2021/12/09 04:50:12;;;;;;;22.60;9.32;;;2.50;75.40;;;;;;5054586;28;20037;-73
2021/12/09 04:52:39;;;;;;;16.90;9.37;;;2.50;75.40;;;;;;5055472;28;20068;-73
2021/12/09 04:55:07;;;;;;;12.87;7.90;;;2.50;75.40;;;;;;5054046;28;20546;-74
2021/12/09 04:57:33;;;;;;;13.70;8.93;;;2.50;75.40;;;;;;5054627;28;20044;-73
2021/12/09 05:00:00;;;;;;;13.10;8.50;;;2.50;75.40;;;;;;5054082;28;20048;-74
2021/12/09 05:02:36;;;;;;;15.53;8.63;;;2.50;75.30;;;;;;5054331;28;20057;-73
2021/12/09 05:05:01;;;;;;;12.60;9.20;;;2.50;75.40;;;;;;5054732;28;20048;-73
2021/12/09 05:07:27;;;;;;;13.53;8.70;;;2.40;75.30;;;;;;5053720;28;20041;-73
2021/12/09 05:09:53;;;;;;;15.53;9.00;;;2.40;75.20;;;;;;5052840;28;20090;-73
2021/12/09 05:12:21;;;;;;;16.80;9.57;;;2.40;75.20;;;;;;5055397;28;20419;-73
2021/12/09 05:14:47;;;;;;;15.50;9.53;;;2.40;75.20;;;;;;5053610;28;20124;-73
2021/12/09 05:17:15;;;;;;;16.43;8.47;;;2.40;75.20;;;;;;5054896;28;20041;-73
2021/12/09 05:19:41;;;;;;;19.20;9.33;;;2.40;75.30;;;;;;5052743;28;20041;-73
2021/12/09 05:22:07;;;;;;;16.77;8.50;;;2.30;75.30;;;;;;5054726;28;20047;-73
2021/12/09 05:24:34;;;;;;;16.03;9.20;;;2.30;75.30;;;;;;5052716;28;20049;-73
2021/12/09 05:27:00;;;;;;;15.10;9.07;;;2.30;75.30;;;;;;5054988;28;20048;-74
2021/12/09 05:29:32;;;;;;;19.40;10.23;;;2.30;75.30;;;;;;5053461;28;20033;-73
2021/12/09 05:32:13;;;;;;;14.93;8.20;;;2.30;75.30;;;;;;5053122;28;20041;-73
2021/12/09 05:34:44;;;;;;;15.40;7.90;;;2.20;75.30;;;;;;5052071;28;20053;-73
2021/12/09 05:37:19;;;;;;;12.17;8.67;;;2.20;75.30;;;;;;5054535;28;20503;-73
2021/12/09 05:39:46;;;;;;;16.70;8.77;;;2.30;75.40;;;;;;5053397;28;20059;-73
2021/12/09 05:42:13;;;;;;;15.43;9.37;;;2.20;75.30;;;;;;5053216;28;20048;-73
2021/12/09 05:44:39;;;;;;;16.73;8.37;;;2.20;75.30;;;;;;5054018;28;20071;-73
2021/12/09 05:47:06;;;;;;;15.97;8.87;;;2.20;75.30;;;;;;5051527;28;20431;-73
2021/12/09 05:49:37;;;;;;;14.57;8.27;;;2.20;75.20;;;;;;5053074;28;20032;-73
2021/12/09 05:52:05;;;;;;;12.00;8.40;;;2.10;75.20;;;;;;5053593;28;20048;-74
2021/12/09 05:54:31;;;;;;;13.23;8.43;;;2.10;75.20;;;;;;5046777;28;20527;-73
2021/12/09 05:56:58;;;;;;;14.93;7.83;;;2.10;75.30;;;;;;5053194;28;20400;-73
2021/12/09 05:59:24;;;;;;;16.93;9.13;;;2.00;75.20;;;;;;5053532;28;20057;-73
2021/12/09 06:01:50;;;;;;;14.67;8.47;;;2.00;75.40;;;;;;5051593;28;20404;-72
2021/12/09 06:04:16;;;;;;;14.20;8.37;;;2.00;75.50;;;;;;5053936;28;20049;-73
2021/12/09 06:06:42;;;;;;;16.80;8.83;;;2.00;75.50;;;;;;5054073;28;20037;-73
2021/12/09 06:09:10;;;;;;;14.73;8.73;;;2.00;75.60;;;;;;5052739;28;20045;-73
2021/12/09 06:11:36;;;;;;;13.57;8.40;;;2.00;75.70;;;;;;5053509;28;20087;-73
2021/12/09 06:14:03;;;;;;;15.63;8.57;;;2.10;75.70;;;;;;5053219;28;20522;-72
2021/12/09 06:16:29;;;;;;;14.00;8.77;;;2.10;75.80;;;;;;5052975;28;20415;-73
2021/12/09 06:18:55;;;;;;;15.63;8.60;;;2.10;75.80;;;;;;5051922;28;20041;-73
2021/12/09 06:21:24;;;;;;;13.67;8.60;;;2.10;75.80;;;;;;5052537;28;20440;-72
2021/12/09 06:23:50;;;;;;;12.90;7.73;;;2.10;75.80;;;;;;5052632;28;20427;-73
2021/12/09 06:26:16;;;;;;;12.10;8.20;;;2.10;75.70;;;;;;5052714;28;20441;-73
2021/12/09 06:28:41;;;;;;;12.70;7.80;;;2.10;75.70;;;;;;5053676;28;20120;-73
2021/12/09 06:31:08;;;;;;;16.67;8.17;;;2.10;75.60;;;;;;5051392;28;20041;-73
2021/12/09 06:33:33;;;;;;;14.80;7.55;;;2.10;75.50;;;;;;5052968;28;20412;-72
2021/12/09 06:36:00;;;;;;;16.40;7.47;;;2.10;75.50;;;;;;5051519;28;20049;-72
2021/12/09 06:38:26;;;;;;;13.17;8.20;;;2.10;75.40;;;;;;5053486;28;20049;-72
2021/12/09 06:40:52;;;;;;;12.80;8.20;;;2.10;75.40;;;;;;5052484;28;20961;-73
2021/12/09 06:43:18;;;;;;;15.17;8.30;;;2.10;75.50;;;;;;5053074;28;20033;-73
2021/12/09 06:45:44;;;;;;;12.30;7.77;;;2.10;75.50;;;;;;5052172;28;20128;-72
2021/12/09 06:48:10;;;;;;;11.77;7.77;;;2.10;75.50;;;;;;5051485;28;20129;-73
2021/12/09 06:50:36;;;;;;;12.33;8.00;;;2.10;75.40;;;;;;5053423;28;20037;-73
2021/12/09 06:53:03;;;;;;;15.07;8.40;;;2.10;75.40;;;;;;5052261;28;20056;-73
2021/12/09 06:55:29;;;;;;;14.10;8.43;;;2.10;75.40;;;;;;5053011;28;20045;-72
2021/12/09 06:57:55;;;;;;;13.70;8.03;;;2.10;75.30;;;;;;5050602;28;20090;-74
2021/12/09 07:00:26;;;;;;;13.90;7.87;;;2.00;75.10;;;;;;5053152;28;20119;-75
2021/12/09 07:02:53;;;;;;;12.93;7.90;;;2.00;75.10;;;;;;5052987;28;20057;-74
2021/12/09 07:05:22;;;;;;;15.73;8.43;;;2.00;75.10;;;;;;5034577;28;20404;-73
2021/12/09 07:07:50;;;;;;;17.93;9.83;;;2.00;75.10;;;;;;5055299;28;20048;-73
2021/12/09 07:10:17;;;;;;;23.43;10.50;;;2.00;75.10;;;;;;5053729;28;20064;-73
2021/12/09 07:12:43;;;;;;;13.50;7.97;;;2.00;75.20;;;;;;5052432;28;20075;-73
2021/12/09 07:15:10;;;;;;;12.00;8.20;;;2.00;75.30;;;;;;5051242;28;20123;-72
2021/12/09 07:17:37;;;;;;;16.20;8.27;;;1.90;75.40;;;;;;5052240;28;20048;-72
2021/12/09 07:20:08;;;;;;;12.37;7.60;;;1.90;75.50;;;;;;5034845;28;20431;-73
2021/12/09 07:22:34;;;;;;;19.13;8.20;;;2.00;75.60;;;;;;5051659;28;20419;-73
2021/12/09 07:25:00;;;;;;;14.90;8.87;;;2.00;75.70;;;;;;5053510;28;20059;-72
2021/12/09 07:27:26;;;;;;;16.37;9.10;;;2.00;75.80;;;;;;5053157;28;20029;-73
2021/12/09 07:29:51;;;;;;;14.27;8.47;;;2.00;75.90;;;;;;5052413;28;20045;-73
2021/12/09 07:32:17;;;;;;;15.87;7.93;;;2.00;75.90;;;;;;5055227;28;20487;-74
2021/12/09 07:34:42;;;;;;;14.47;8.43;;;2.00;75.90;;;;;;5057377;28;20040;-73
2021/12/09 07:37:08;;;;;;;17.97;8.23;;;2.00;76.00;;;;;;5055429;28;20044;-74
2021/12/09 07:39:34;;;;;;;20.20;9.13;;;2.00;76.00;;;;;;5057042;28;20048;-73
2021/12/09 07:42:01;;;;;;;12.27;6.60;;;2.00;76.10;;;;;;5055618;28;20051;-74
2021/12/09 07:44:30;;;;;;;15.63;8.00;;;2.00;76.10;;;;;;5056993;28;20076;-74
2021/12/09 07:46:57;;;;;;;15.33;7.90;;;2.10;76.10;;;;;;5055548;28;20385;-74
2021/12/09 07:49:23;;;;;;;16.43;8.13;;;2.10;76.20;;;;;;5055617;28;20059;-74
2021/12/09 07:51:49;;;;;;;16.00;7.43;;;2.10;76.20;;;;;;5055943;28;20041;-74
2021/12/09 07:54:16;;;;;;;12.67;7.73;;;2.10;76.20;;;;;;5056469;28;20044;-74
2021/12/09 07:56:43;;;;;;;13.67;7.67;;;2.10;76.20;;;;;;5055402;28;20068;-74
2021/12/09 07:59:11;;;;;;;19.07;8.60;;;2.20;76.30;;;;;;5056300;28;20048;-74
2021/12/09 08:01:40;;;;;;;16.23;7.73;;;2.20;76.30;;;;;;5056701;28;20045;-73
2021/12/09 08:04:07;;;;;;;15.60;8.03;;;2.20;76.40;;;;;;5056388;28;20492;-74
2021/12/09 08:06:34;;;;;;;17.13;7.37;;;2.20;76.40;;;;;;5056362;28;20389;-74
2021/12/09 08:09:00;;;;;;;13.13;7.37;;;2.20;76.50;;;;;;5055799;28;20116;-74
2021/12/09 08:11:26;;;;;;;14.20;7.47;;;2.20;76.40;;;;;;5055347;28;20056;-73
2021/12/09 08:13:52;;;;;;;12.20;7.10;;;2.20;76.40;;;;;;5054836;28;20037;-74
2021/12/09 08:16:18;;;;;;;13.10;7.43;;;2.20;76.40;;;;;;5055363;28;20045;-74
2021/12/09 08:18:54;;;;;;;13.93;7.20;;;2.20;76.40;;;;;;5054853;28;20056;-74
2021/12/09 08:21:28;;;;;;;14.50;6.93;;;2.30;76.40;;;;;;5055970;28;20086;-74
2021/12/09 08:23:54;;;;;;;16.77;7.70;;;2.30;76.50;;;;;;5054737;28;20154;-74
2021/12/09 08:26:21;;;;;;;21.30;8.67;;;2.30;76.40;;;;;;5056242;28;20108;-74
2021/12/09 08:28:47;;;;;;;15.93;7.57;;;2.30;76.50;;;;;;5055874;28;20131;-74
2021/12/09 08:31:13;;;;;;;16.77;7.43;;;2.30;76.90;;;;;;5056363;28;20076;-74
2021/12/09 08:33:39;;;;;;;17.30;7.37;;;2.30;76.50;;;;;;5054711;28;20068;-74
2021/12/09 08:36:05;;;;;;;18.80;6.50;;;2.30;76.50;;;;;;5054825;28;20041;-74
2021/12/09 08:38:31;;;;;;;15.33;7.80;;;2.30;76.50;;;;;;5055651;28;20043;-74
2021/12/09 08:40:57;;;;;;;16.20;7.20;;;2.30;76.50;;;;;;5056062;28;20160;-74
2021/12/09 08:43:23;;;;;;;15.20;7.97;;;2.40;76.60;;;;;;5055462;28;20033;-74
2021/12/09 08:45:53;;;;;;;15.90;8.47;;;2.40;76.60;;;;;;5055954;28;20056;-74
2021/12/09 08:48:19;;;;;;;17.25;7.15;;;2.40;76.70;;;;;;5055591;28;20063;-74
2021/12/09 08:50:45;;;;;;;14.33;6.87;;;2.40;76.60;;;;;;5055746;28;20044;-74
2021/12/09 08:53:15;;;;;;;14.80;7.57;;;2.40;76.60;;;;;;5055426;28;20041;-74
2021/12/09 08:55:41;;;;;;;15.77;7.27;;;2.50;76.70;;;;;;5055472;28;20041;-74
2021/12/09 08:58:08;;;;;;;16.92;7.63;;;2.50;76.60;;;;;;5054434;28;20037;-74
2021/12/09 09:00:35;;;;;;;15.63;7.10;;;2.50;76.60;;;;;;5053389;28;20056;-74
2021/12/09 09:03:03;;;;;;;14.53;7.37;;;2.50;76.60;;;;;;5055274;28;20041;-74
2021/12/09 09:05:30;;;;;;;15.25;7.53;;;2.50;76.60;;;;;;5055229;28;20404;-74
2021/12/09 09:07:56;;;;;;;21.83;7.77;;;2.50;76.60;;;;;;5055605;28;20124;-75
2021/12/09 09:10:26;;;;;;;13.60;6.70;;;2.50;76.60;;;;;;5055120;28;20049;-74
2021/12/09 09:12:52;;;;;;;15.50;6.95;;;2.50;76.60;;;;;;5055499;28;20139;-74
2021/12/09 09:15:21;;;;;;;17.30;7.38;;;2.50;76.70;;;;;;5053735;28;20048;-74
2021/12/09 09:17:49;;;;;;;17.13;7.57;;;2.50;76.70;;;;;;5055304;28;20037;-74
2021/12/09 09:20:20;;;;;;;14.10;7.10;;;2.50;76.70;;;;;;5053714;28;20045;-74
2021/12/09 09:22:46;;;;;;;12.07;7.23;;;2.50;76.80;;;;;;5054496;28;20033;-74
2021/12/09 09:25:17;;;;;;;17.07;7.63;;;2.60;76.90;;;;;;5054566;28;20052;-74
2021/12/09 09:27:44;;;;;;;13.57;7.38;;;2.60;77.00;;;;;;5054012;28;20369;-73
2021/12/09 09:30:14;;;;;;;16.73;7.23;;;2.70;77.10;;;;;;5053736;28;20057;-73
2021/12/09 09:32:41;;;;;;;14.90;7.00;;;2.70;77.10;;;;;;5054948;28;20051;-74
2021/12/09 09:35:09;;;;;;;15.02;6.78;;;2.80;77.20;;;;;;5054722;28;20049;-74
2021/12/09 09:37:34;;;;;;;12.75;6.53;;;2.80;77.20;;;;;;5053439;28;20507;-74
2021/12/09 09:40:01;;;;;;;11.77;6.30;;;2.80;77.10;;;;;;5052414;28;20091;-74
2021/12/09 09:43:00;;;;;;;12.85;6.55;;;2.90;77.20;;;;;;5054958;28;20075;-73
2021/12/09 09:45:16;;;;;;;11.68;6.35;;;2.90;77.20;;;;;;5052077;28;20098;-74
2021/12/09 09:47:42;;;;;;;11.93;5.70;;;3.00;77.20;;;;;;5054449;28;20051;-73
2021/12/09 09:50:10;;;;;;;11.68;6.55;;;3.00;77.10;;;;;;5054210;28;20523;-74
2021/12/09 09:52:37;;;;;;;13.38;5.93;;;3.10;77.00;;;;;;5054222;28;20503;-74
2021/12/09 09:55:07;;;;;;;14.02;6.45;;;3.10;76.90;;;;;;5052142;28;20414;-73
2021/12/09 09:57:32;;;;;;;11.90;6.68;;;3.20;76.90;;;;;;5054575;28;20052;-73
2021/12/09 09:59:58;;;;;;;11.23;6.03;;;3.30;76.90;;;;;;5052957;28;20033;-74
2021/12/09 10:02:24;;;;;;;14.23;6.35;;;3.30;76.80;;;;;;5054022;28;20040;-73
2021/12/09 10:05:00;;;;;;;13.70;6.00;;;3.40;76.80;;;;;;5054171;28;20098;-74
2021/12/09 10:07:26;;;;;;;14.45;5.97;;;3.40;76.60;;;;;;5054267;28;20428;-74
2021/12/09 10:09:52;;;;;;;11.98;6.35;;;3.40;76.40;;;;;;5053840;28;20503;-73
2021/12/09 10:12:18;;;;;;;14.93;5.82;;;3.50;76.30;;;;;;5054226;28;20048;-74
2021/12/09 10:14:51;;;;;;;12.55;6.20;;;3.40;76.10;;;;;;5052269;28;20049;-73
2021/12/09 10:17:20;;;;;;;12.77;5.63;;;3.40;76.10;;;;;;5052491;28;20041;-74
2021/12/09 10:19:46;;;;;;;13.05;6.18;;;3.50;76.20;;;;;;5035790;28;20045;-73
2021/12/09 10:22:19;;;;;;;12.10;6.05;;;3.50;76.20;;;;;;5052992;28;20139;-74
2021/12/09 10:24:47;;;;;;;11.85;5.55;;;3.50;76.20;;;;;;5054013;28;20052;-73
2021/12/09 10:27:27;;;;;;;10.32;5.20;;;3.60;76.20;;;;;;5053876;28;20053;-74
2021/12/09 10:29:57;;;;;;;12.48;5.47;;;3.50;76.10;;;;;;5053639;28;20047;-73
2021/12/09 10:32:29;;;;;;;13.38;6.05;;;3.60;76.20;;;;;;5032732;28;20053;-74
2021/12/09 10:35:02;;;;;;;14.35;6.63;;;3.60;76.20;;;;;;5034572;28;20099;-74
2021/12/09 10:37:30;;;;;;;15.02;6.68;;;3.70;76.20;;;;;;5053855;28;20075;-75
2021/12/09 10:40:07;;;;;;;12.02;6.45;;;3.70;76.20;;;;;;5052601;28;20037;-74
2021/12/09 10:42:56;;;;;;;13.38;6.43;;;3.70;76.10;;;;;;5052524;28;20057;-74
2021/12/09 10:45:28;;;;;;;12.77;6.60;;;3.80;76.20;;;;;;5051929;28;20487;-73
2021/12/09 10:48:06;;;;;;;16.38;7.07;;;3.80;76.10;;;;;;5053934;28;20451;-74
2021/12/09 10:50:42;;;;;;;17.15;8.43;;;3.80;76.20;;;;;;5052295;28;20594;-73
2021/12/09 10:55:55;;;;;;;16.75;6.68;;;3.90;76.20;;;;;;5038827;28;20107;-73
2021/12/09 10:58:26;;;;;;;11.52;6.65;;;3.90;76.20;;;;;;5053044;28;20041;-73
2021/12/09 11:00:59;;;;;;;11.68;6.55;;;3.90;76.20;;;;;;5053267;28;20079;-73
2021/12/09 11:03:35;;;;;;;12.98;7.13;;;4.00;76.20;;;;;;5053543;28;20081;-73
2021/12/09 11:06:11;;;;;;;12.73;6.85;;;4.00;76.10;;;;;;5053224;28;20072;-73
2021/12/09 11:08:56;;;;;;;15.93;7.65;;;4.00;76.00;;;;;;5056410;28;20041;-73
2021/12/09 11:11:31;;;;;;;15.13;7.40;;;4.00;75.90;;;;;;5056129;28;20044;-74
2021/12/09 11:14:00;;;;;;;12.30;7.15;;;4.10;76.00;;;;;;5057160;28;20400;-74
2021/12/09 11:16:27;;;;;;;16.00;8.00;;;4.10;76.00;;;;;;5039544;28;20041;-74
2021/12/09 11:19:15;;;;;;;21.67;8.05;;;4.10;75.80;;;;;;5057544;28;20056;-74
2021/12/09 11:22:02;;;;;;;19.92;8.50;;;4.20;76.00;;;;;;5056950;28;20049;-74
2021/12/09 11:24:32;;;;;;;17.20;8.90;;;4.20;75.90;;;;;;5058588;28;20389;-74
2021/12/09 11:27:12;;;;;;;13.57;7.55;;;4.20;75.90;;;;;;5059173;28;20503;-73
2021/12/09 11:29:48;;;;;;;16.48;9.15;;;4.20;75.90;;;;;;5057526;28;20546;-74
2021/12/09 11:32:38;;;;;;;19.77;8.77;;;4.30;76.00;;;;;;5051016;28;20048;-73
2021/12/09 11:35:16;;;;;;;20.23;8.77;;;4.30;76.00;;;;;;5055967;28;20052;-74
2021/12/09 11:40:33;;;;;;;15.88;7.72;;;4.30;75.90;;;;;;5057138;28;20053;-73
2021/12/09 11:43:01;;;;;;;16.55;8.52;;;4.40;75.90;;;;;;5056937;28;20096;-74
2021/12/09 11:45:31;;;;;;;16.65;9.13;;;4.40;75.90;;;;;;5057100;28;20479;-74
2021/12/09 11:47:58;;;;;;;17.20;9.38;;;4.40;75.80;;;;;;5056545;28;20116;-74
2021/12/09 11:50:27;;;;;;;14.75;8.52;;;4.40;75.80;;;;;;5057063;28;20044;-74
2021/12/09 11:52:54;;;;;;;15.52;9.02;;;4.50;75.80;;;;;;5054791;28;20045;-74
2021/12/09 11:55:25;;;;;;;16.77;8.15;;;4.40;75.70;;;;;;5057061;28;20090;-74
2021/12/09 11:57:59;;;;;;;17.38;9.40;;;4.50;75.80;;;;;;5056302;28;20077;-74
2021/12/09 12:15:24;;;;;;;18.38;10.35;;;4.50;75.40;;;;;;5055561;28;19959;-73
2021/12/09 12:18:53;;;;;;;15.95;8.77;;;4.50;75.60;;;;;;5054290;28;20562;-74
2021/12/09 12:26:37;;;;;;;19.83;10.38;;;4.60;75.80;;;;;;5054411;28;20045;-74
2021/12/09 12:29:27;;;;;;;22.03;11.57;;;4.60;75.70;;;;;;5055824;28;20491;-73
2021/12/09 12:37:53;;;;;;;19.25;10.93;;;4.60;75.70;;;;;;5056013;28;20090;-74
2021/12/09 12:40:38;;;;;;;22.00;10.98;;;4.60;76.10;;;;;;5054911;28;20309;-74
2021/12/09 12:43:17;;;;;;;18.27;10.52;;;4.70;75.80;;;;;;5054825;28;20045;-74
2021/12/09 12:46:04;;;;;;;24.00;11.38;;;4.70;75.70;;;;;;5055978;28;20049;-74
2021/12/09 12:51:28;;;;;;;18.23;11.45;;;4.70;75.60;;;;;;5055702;28;20056;-74
2021/12/09 12:54:20;;;;;;;19.95;11.55;;;4.70;75.60;;;;;;5054259;28;20079;-73
2021/12/09 12:56:56;;;;;;;20.02;10.85;;;4.70;75.70;;;;;;5054781;28;20381;-74
2021/12/09 12:59:34;;;;;;;22.05;11.35;;;4.70;75.70;;;;;;5054010;28;20055;-74
2021/12/09 13:02:02;;;;;;;19.55;11.45;;;4.70;76.10;;;;;;5054106;28;20171;-74
2021/12/09 13:04:57;;;;;;;21.27;11.40;;;4.70;75.70;;;;;;5054068;28;20520;-74
2021/12/09 13:10:33;;;;;;;21.73;11.45;;;4.70;75.60;;;;;;5055041;28;19954;-73
2021/12/09 13:13:14;;;;;;;24.15;12.60;;;4.70;75.80;;;;;;4993598;28;20080;-74
2021/12/09 13:16:10;;;;;;;21.42;12.02;;;4.80;75.90;;;;;;4977641;28;20058;-73
2021/12/09 13:18:42;;;;;;;25.00;12.73;;;4.80;76.00;;;;;;4993215;28;20046;-74
2021/12/09 13:21:45;;;;;;;24.05;12.13;;;4.80;75.90;;;;;;4977609;28;20062;-73
2021/12/09 13:24:25;;;;;;;19.95;10.90;;;4.80;75.90;;;;;;4977424;28;20567;-73
2021/12/09 13:27:09;;;;;;;21.00;11.82;;;4.80;76.00;;;;;;4993726;28;20088;-74
2021/12/09 13:35:16;;;;;;;21.30;11.20;;;4.90;75.90;;;;;;4935702;29;20056;-74
2021/12/09 13:40:39;;;;;;;25.67;12.32;;;5.00;75.90;;;;;;4935170;29;20111;-74